createdAt,value
2022-08-22T00:01:35.274Z,19.30
2022-08-22T00:02:46.587Z,20.86
2022-08-22T00:04:17.057Z,19.17
2022-08-22T00:07:08.286Z,19.23
2022-08-22T00:10:25.201Z,19.30
2022-08-22T00:13:13.229Z,19.32
2022-08-22T00:15:52.695Z,19.28
2022-08-22T00:18:50.369Z,19.25
2022-08-22T00:21:42.399Z,19.33
2022-08-22T00:24:28.783Z,19.35
2022-08-22T00:27:08.269Z,19.22
2022-08-22T00:29:44.310Z,19.22
2022-08-22T00:32:34.046Z,19.24
2022-08-22T00:35:44.501Z,19.09
2022-08-22T00:38:21.943Z,19.13
2022-08-22T00:40:57.828Z,19.09
2022-08-22T00:43:49.059Z,19.12
2022-08-22T00:46:46.985Z,19.13
2022-08-22T00:49:53.978Z,19.11
2022-08-22T00:52:58.850Z,19.05
2022-08-22T00:55:44.989Z,19.06
2022-08-22T00:58:56.111Z,18.97
2022-08-22T01:01:36.468Z,18.89
2022-08-22T01:04:38.390Z,18.84
2022-08-22T01:07:16.977Z,18.83
2022-08-22T01:09:52.756Z,18.72
2022-08-22T01:13:01.604Z,18.70
2022-08-22T01:15:34.964Z,18.68
2022-08-22T01:18:36.845Z,18.64
2022-08-22T01:22:11.841Z,18.67
2022-08-22T01:25:21.452Z,18.66
2022-08-22T01:28:23.565Z,18.61
2022-08-22T01:31:41.340Z,18.54
2022-08-22T01:34:29.221Z,18.55
2022-08-22T01:37:33.183Z,18.68
2022-08-22T01:40:37.463Z,18.68
2022-08-22T01:44:24.346Z,18.63
2022-08-22T01:47:23.969Z,18.59
2022-08-22T01:50:02.502Z,18.66
2022-08-22T01:52:47.623Z,18.60
2022-08-22T01:55:36.766Z,18.44
2022-08-22T01:58:21.402Z,18.40
2022-08-22T02:01:08.548Z,18.37
2022-08-22T02:03:59.338Z,18.40
2022-08-22T02:07:04.193Z,18.07
2022-08-22T02:10:10.762Z,17.83
2022-08-22T02:12:52.539Z,17.67
2022-08-22T02:15:41.096Z,17.85
2022-08-22T02:18:28.862Z,17.87
2022-08-22T02:21:32.043Z,17.81
2022-08-22T02:24:14.655Z,17.83
2022-08-22T02:27:04.294Z,17.83
2022-08-22T02:29:55.854Z,17.76
2022-08-22T02:32:39.971Z,17.71
2022-08-22T02:35:12.724Z,17.76
2022-08-22T02:38:13.330Z,17.76
2022-08-22T02:40:53.299Z,17.73
2022-08-22T02:43:41.816Z,17.58
2022-08-22T02:46:58.335Z,17.71
2022-08-22T02:49:36.415Z,17.69
2022-08-22T02:52:56.670Z,17.73
2022-08-22T02:55:39.823Z,17.72
2022-08-22T02:58:36.778Z,17.62
2022-08-22T03:01:03.519Z,17.60
2022-08-22T03:03:41.388Z,17.56
2022-08-22T03:06:17.480Z,17.50
2022-08-22T03:09:22.168Z,17.59
2022-08-22T03:12:07.414Z,17.61
2022-08-22T03:14:45.731Z,17.61
2022-08-22T03:17:30.519Z,17.63
2022-08-22T03:20:14.843Z,17.65
2022-08-22T03:23:15.880Z,17.60
2022-08-22T03:26:07.456Z,17.54
2022-08-22T03:28:59.854Z,17.34
2022-08-22T03:31:31.030Z,17.19
2022-08-22T03:34:24.585Z,17.21
2022-08-22T03:37:06.417Z,17.17
2022-08-22T03:39:51.450Z,17.07
2022-08-22T03:42:45.630Z,17.06
2022-08-22T03:45:38.494Z,17.08
2022-08-22T03:48:48.801Z,16.97
2022-08-22T03:52:13.313Z,16.94
2022-08-22T03:55:04.617Z,17.02
2022-08-22T03:58:27.552Z,17.09
2022-08-22T04:01:21.820Z,17.00
2022-08-22T04:04:10.430Z,16.94
2022-08-22T04:07:04.936Z,16.79
2022-08-22T04:10:10.117Z,16.90
2022-08-22T04:13:15.228Z,16.97
2022-08-22T04:15:57.042Z,16.96
2022-08-22T04:18:35.925Z,16.72
2022-08-22T04:21:32.704Z,16.66
2022-08-22T04:24:30.272Z,16.65
2022-08-22T04:27:26.499Z,16.67
2022-08-22T04:30:02.649Z,16.63
2022-08-22T04:32:45.681Z,16.60
2022-08-22T04:35:38.445Z,16.61
2022-08-22T04:38:22.496Z,16.58
2022-08-22T04:41:25.901Z,16.40
2022-08-22T04:44:07.881Z,16.34
2022-08-22T04:47:08.203Z,16.32
2022-08-22T04:50:04.227Z,16.37
2022-08-22T04:53:19.897Z,16.47
2022-08-22T04:56:07.764Z,16.37
2022-08-22T04:58:46.824Z,16.43
2022-08-22T05:01:42.742Z,16.41
2022-08-22T05:04:19.409Z,16.33
2022-08-22T05:07:11.982Z,16.38
2022-08-22T05:09:57.833Z,16.28
2022-08-22T05:12:36.317Z,16.21
2022-08-22T05:15:13.591Z,16.12
2022-08-22T05:17:45.149Z,16.12
2022-08-22T05:20:21.227Z,16.22
2022-08-22T05:22:56.422Z,16.34
2022-08-22T05:25:33.372Z,16.42
2022-08-22T05:28:20.855Z,16.33
2022-08-22T05:30:48.988Z,16.31
2022-08-22T05:33:42.864Z,16.41
2022-08-22T05:36:20.140Z,16.47
2022-08-22T05:38:56.950Z,16.56
2022-08-22T05:41:28.841Z,16.56
2022-08-22T05:43:56.206Z,16.56
2022-08-22T05:46:34.938Z,16.56
2022-08-22T05:49:06.048Z,16.60
2022-08-22T05:51:56.791Z,16.64
2022-08-22T05:54:34.621Z,16.59
2022-08-22T05:57:28.820Z,16.58
2022-08-22T06:00:13.010Z,16.76
2022-08-22T06:03:04.472Z,16.93
2022-08-22T06:05:39.343Z,17.06
2022-08-22T06:08:31.225Z,17.06
2022-08-22T06:11:08.415Z,17.11
2022-08-22T06:13:47.257Z,16.95
2022-08-22T06:16:47.550Z,16.88
2022-08-22T06:19:20.058Z,17.04
2022-08-22T06:21:51.925Z,17.22
2022-08-22T06:24:28.149Z,17.41
2022-08-22T06:27:03.959Z,17.49
2022-08-22T06:29:40.690Z,17.54
2022-08-22T06:32:38.225Z,17.62
2022-08-22T06:35:28.118Z,17.73
2022-08-22T06:38:01.268Z,17.81
2022-08-22T06:40:29.934Z,17.84
2022-08-22T06:43:01.181Z,17.95
2022-08-22T06:45:32.687Z,18.11
2022-08-22T06:48:05.871Z,18.23
2022-08-22T06:50:40.572Z,18.20
2022-08-22T06:53:21.691Z,18.33
2022-08-22T06:56:02.551Z,18.47
2022-08-22T06:58:42.502Z,18.60
2022-08-22T07:01:20.083Z,18.76
2022-08-22T07:03:53.373Z,18.88
2022-08-22T07:06:49.937Z,19.06
2022-08-22T07:09:34.591Z,19.27
2022-08-22T07:12:18.819Z,19.38
2022-08-22T07:14:51.920Z,19.55
2022-08-22T07:17:28.467Z,19.72
2022-08-22T07:20:26.037Z,19.88
2022-08-22T07:23:00.307Z,20.04
2022-08-22T07:25:28.745Z,20.15
2022-08-22T07:28:51.186Z,20.31
2022-08-22T07:31:34.620Z,20.48
2022-08-22T07:34:32.393Z,20.67
2022-08-22T07:37:32.160Z,20.89
2022-08-22T07:40:38.467Z,21.15
2022-08-22T07:43:28.212Z,21.41
2022-08-22T07:46:08.920Z,21.67
2022-08-22T07:49:08.018Z,21.89
2022-08-22T07:51:46.620Z,22.06
2022-08-22T07:54:22.609Z,22.28
2022-08-22T07:57:15.569Z,22.54
2022-08-22T07:59:54.495Z,22.71
2022-08-22T08:02:24.044Z,22.82
2022-08-22T08:04:55.044Z,23.10
2022-08-22T08:07:26.742Z,23.26
2022-08-22T08:10:14.361Z,23.24
2022-08-22T08:12:52.703Z,23.27
2022-08-22T08:15:34.270Z,23.33
2022-08-22T08:18:11.400Z,23.28
2022-08-22T08:20:39.255Z,23.35
2022-08-22T08:23:10.674Z,23.70
2022-08-22T08:25:59.283Z,24.14
2022-08-22T08:28:36.045Z,24.34
2022-08-22T08:31:18.991Z,24.54
2022-08-22T08:33:50.265Z,24.85
2022-08-22T08:36:35.978Z,25.16
2022-08-22T08:39:14.807Z,25.44
2022-08-22T08:42:02.653Z,25.72
2022-08-22T08:45:18.179Z,25.98
2022-08-22T08:48:20.922Z,26.24
2022-08-22T08:51:18.716Z,26.49
2022-08-22T08:54:26.618Z,26.62
2022-08-22T08:57:04.087Z,26.84
2022-08-22T09:00:14.375Z,27.13
2022-08-22T09:06:14.425Z,27.54
2022-08-22T09:09:18.792Z,27.68
2022-08-22T09:12:01.417Z,27.76
2022-08-22T09:14:53.937Z,27.85
2022-08-22T09:18:10.639Z,27.99
2022-08-22T09:20:49.220Z,28.17
2022-08-22T09:24:05.186Z,28.37
2022-08-22T09:26:52.103Z,28.46
2022-08-22T09:29:54.974Z,28.62
2022-08-22T09:33:05.137Z,28.86
2022-08-22T09:36:05.263Z,28.85
2022-08-22T09:38:48.281Z,28.92
2022-08-22T09:40:15.326Z,27.32
2022-08-22T09:41:33.768Z,29.15
2022-08-22T09:44:15.616Z,29.29
2022-08-22T09:47:31.383Z,29.44
2022-08-22T09:50:31.064Z,29.58
2022-08-22T09:53:21.171Z,29.84
2022-08-22T09:56:15.798Z,29.85
2022-08-22T09:59:06.583Z,29.96
2022-08-22T10:01:59.267Z,29.95
2022-08-22T10:04:58.509Z,29.99
2022-08-22T10:08:19.803Z,30.20
2022-08-22T10:11:08.109Z,30.32
2022-08-22T10:14:23.713Z,30.52
2022-08-22T10:17:11.710Z,30.62
2022-08-22T10:20:03.169Z,30.66
2022-08-22T10:22:56.957Z,30.63
2022-08-22T10:26:08.051Z,30.86
2022-08-22T10:28:56.306Z,31.08
2022-08-22T10:31:58.469Z,31.18
2022-08-22T10:34:37.006Z,31.28
2022-08-22T10:37:46.133Z,31.42
2022-08-22T10:40:37.166Z,31.60
2022-08-22T10:43:40.785Z,31.76
2022-08-22T10:46:17.184Z,32.03
2022-08-22T10:49:08.032Z,32.21
2022-08-22T10:51:49.642Z,32.27
2022-08-22T10:54:51.332Z,32.38
2022-08-22T10:58:05.968Z,32.31
2022-08-22T11:00:59.670Z,32.29
2022-08-22T11:03:55.691Z,32.64
2022-08-22T11:06:59.467Z,32.80
2022-08-22T11:09:43.192Z,33.03
2022-08-22T11:12:52.426Z,33.21
2022-08-22T11:16:04.175Z,33.33
2022-08-22T11:19:15.397Z,33.16
2022-08-22T11:22:15.224Z,33.21
2022-08-22T11:25:14.108Z,33.69
2022-08-22T11:28:22.986Z,34.04
2022-08-22T11:31:37.910Z,34.33
2022-08-22T11:34:55.493Z,34.60
2022-08-22T11:38:01.550Z,34.99
2022-08-22T11:41:04.720Z,35.49
2022-08-22T11:43:46.437Z,35.93
2022-08-22T11:46:42.844Z,36.21
2022-08-22T11:49:32.628Z,36.58
2022-08-22T11:52:51.669Z,36.90
2022-08-22T11:55:42.939Z,37.29
2022-08-22T11:58:54.091Z,37.00
2022-08-22T12:01:37.348Z,36.42
2022-08-22T12:04:33.694Z,36.69
2022-08-22T12:07:29.137Z,36.51
2022-08-22T12:10:19.079Z,36.34
2022-08-22T12:13:37.710Z,37.42
2022-08-22T12:16:25.750Z,37.66
2022-08-22T12:19:12.189Z,37.93
2022-08-22T12:22:36.341Z,38.21
2022-08-22T12:25:39.650Z,38.30
2022-08-22T12:28:39.894Z,38.46
2022-08-22T12:31:58.875Z,37.41
2022-08-22T12:35:19.343Z,37.08
2022-08-22T12:38:28.316Z,37.48
2022-08-22T12:41:28.340Z,38.07
2022-08-22T12:44:30.915Z,38.15
2022-08-22T12:47:32.044Z,38.53
2022-08-22T12:50:24.353Z,37.94
2022-08-22T12:53:19.671Z,37.73
2022-08-22T12:56:24.283Z,38.13
2022-08-22T12:59:35.608Z,38.62
2022-08-22T13:02:36.040Z,38.71
2022-08-22T13:05:19.646Z,38.82
2022-08-22T13:08:04.651Z,38.95
2022-08-22T13:11:04.899Z,38.87
2022-08-22T13:13:56.235Z,38.54
2022-08-22T13:16:34.470Z,38.70
2022-08-22T13:19:35.305Z,38.75
2022-08-22T13:22:12.617Z,38.79
2022-08-22T13:24:52.637Z,38.81
2022-08-22T13:27:30.479Z,39.14
2022-08-22T13:30:07.472Z,38.95
2022-08-22T13:32:45.026Z,38.32
2022-08-22T13:35:52.107Z,37.57
2022-08-22T13:38:46.843Z,38.29
2022-08-22T13:41:24.831Z,38.85
2022-08-22T13:44:06.978Z,39.00
2022-08-22T13:46:48.317Z,38.84
2022-08-22T13:50:07.921Z,38.63
2022-08-22T13:52:58.523Z,38.58
2022-08-22T13:55:32.734Z,38.66
2022-08-22T13:58:30.822Z,38.87
2022-08-22T14:01:15.419Z,39.10
2022-08-22T14:04:00.929Z,39.18
2022-08-22T14:06:41.503Z,39.05
2022-08-22T14:09:29.540Z,38.98
2022-08-22T14:12:21.079Z,39.02
2022-08-22T14:14:58.012Z,37.40
2022-08-22T14:17:51.950Z,36.21
2022-08-22T14:20:32.178Z,34.97
2022-08-22T14:23:29.320Z,34.59
2022-08-22T14:25:57.469Z,34.54
2022-08-22T14:28:38.529Z,34.73
2022-08-22T14:31:14.265Z,35.77
2022-08-22T14:33:52.590Z,36.21
2022-08-22T14:36:47.097Z,35.22
2022-08-22T14:39:45.862Z,34.20
2022-08-22T14:42:24.560Z,33.24
2022-08-22T14:45:13.258Z,32.63
2022-08-22T14:48:29.985Z,33.07
2022-08-22T14:50:55.624Z,34.40
2022-08-22T14:53:30.951Z,34.79
2022-08-22T14:56:23.356Z,34.64
2022-08-22T14:59:04.381Z,34.66
2022-08-22T15:01:55.443Z,35.06
2022-08-22T15:04:37.972Z,35.08
2022-08-22T15:07:07.494Z,34.89
2022-08-22T15:09:54.236Z,34.64
2022-08-22T15:12:32.890Z,33.66
2022-08-22T15:15:06.964Z,33.61
2022-08-22T15:17:45.998Z,33.34
2022-08-22T15:20:28.080Z,33.15
2022-08-22T15:23:02.156Z,32.74
2022-08-22T15:25:41.006Z,32.33
2022-08-22T15:28:14.426Z,31.99
2022-08-22T15:31:06.906Z,31.83
2022-08-22T15:33:43.158Z,31.62
2022-08-22T15:36:25.428Z,31.46
2022-08-22T15:38:56.864Z,31.35
2022-08-22T15:41:43.513Z,31.26
2022-08-22T15:44:30.842Z,31.24
2022-08-22T15:47:40.399Z,31.09
2022-08-22T15:50:32.624Z,31.04
2022-08-22T15:53:45.953Z,30.84
2022-08-22T15:56:19.898Z,30.86
2022-08-22T15:59:13.249Z,30.85
2022-08-22T16:02:16.712Z,30.85
2022-08-22T16:04:51.766Z,30.86
2022-08-22T16:07:57.285Z,30.70
2022-08-22T16:10:24.037Z,30.61
2022-08-22T16:13:10.403Z,30.43
2022-08-22T16:15:55.927Z,30.40
2022-08-22T16:18:42.501Z,30.32
2022-08-22T16:21:15.916Z,30.14
2022-08-22T16:23:56.617Z,30.07
2022-08-22T16:26:30.877Z,29.96
2022-08-22T16:29:12.379Z,29.86
2022-08-22T16:32:01.406Z,29.68
2022-08-22T16:34:37.409Z,29.60
2022-08-22T16:37:17.945Z,29.53
2022-08-22T16:40:03.479Z,29.44
2022-08-22T16:42:51.319Z,29.42
2022-08-22T16:45:33.853Z,29.37
2022-08-22T16:48:27.184Z,29.35
2022-08-22T16:51:21.174Z,29.32
2022-08-22T16:54:07.354Z,29.25
2022-08-22T16:57:02.109Z,29.19
2022-08-22T16:59:52.517Z,29.09
2022-08-22T17:02:39.173Z,28.99
2022-08-22T17:05:32.341Z,28.98
2022-08-22T17:08:09.184Z,28.93
2022-08-22T17:11:10.312Z,28.84
2022-08-22T17:14:20.571Z,28.81
2022-08-22T17:17:41.494Z,28.78
2022-08-22T17:20:39.482Z,28.70
2022-08-22T17:23:28.238Z,28.62
2022-08-22T17:26:49.566Z,28.60
2022-08-22T17:29:47.133Z,28.45
2022-08-22T17:32:34.919Z,28.40
2022-08-22T17:35:33.824Z,28.35
2022-08-22T17:38:47.634Z,28.27
2022-08-22T17:41:33.608Z,28.14
2022-08-22T17:44:31.907Z,28.09
2022-08-22T17:47:18.661Z,28.08
2022-08-22T17:50:22.647Z,28.08
2022-08-22T17:53:03.510Z,28.00
2022-08-22T17:55:49.495Z,27.88
2022-08-22T17:58:37.745Z,27.85
2022-08-22T18:02:13.332Z,27.65
2022-08-22T18:05:20.620Z,27.49
2022-08-22T18:08:06.206Z,27.32
2022-08-22T18:11:11.826Z,27.18
2022-08-22T18:14:08.704Z,27.09
2022-08-22T18:16:54.457Z,27.07
2022-08-22T18:19:39.777Z,27.02
2022-08-22T18:22:34.955Z,26.91
2022-08-22T18:25:40.742Z,26.82
2022-08-22T18:28:25.392Z,26.74
2022-08-22T18:31:05.626Z,26.54
2022-08-22T18:33:41.517Z,26.35
2022-08-22T18:36:25.412Z,26.16
2022-08-22T18:39:05.750Z,26.09
2022-08-22T18:41:45.433Z,26.11
2022-08-22T18:44:21.908Z,26.00
2022-08-22T18:46:52.803Z,25.80
2022-08-22T18:49:19.674Z,25.68
2022-08-22T18:52:08.290Z,25.55
2022-08-22T18:54:49.686Z,25.52
2022-08-22T18:58:12.474Z,25.45
2022-08-22T19:00:57.277Z,25.39
2022-08-22T19:04:08.556Z,25.29
2022-08-22T19:06:56.668Z,25.22
2022-08-22T19:10:11.638Z,25.29
2022-08-22T19:13:09.007Z,25.21
2022-08-22T19:15:50.951Z,25.16
2022-08-22T19:18:42.032Z,24.84
2022-08-22T19:21:39.040Z,24.73
2022-08-22T19:24:55.131Z,24.52
2022-08-22T19:27:31.370Z,24.52
2022-08-22T19:30:04.752Z,24.41
2022-08-22T19:32:52.840Z,24.04
2022-08-22T19:35:28.882Z,23.97
2022-08-22T19:38:03.790Z,24.13
2022-08-22T19:40:45.787Z,24.22
2022-08-22T19:43:37.958Z,24.23
2022-08-22T19:46:11.892Z,24.18
2022-08-22T19:48:52.285Z,24.06
2022-08-22T19:51:19.084Z,23.86
2022-08-22T19:54:00.851Z,23.80
2022-08-22T19:57:02.597Z,23.68
2022-08-22T19:59:53.724Z,23.57
2022-08-22T20:02:37.506Z,23.31
2022-08-22T20:05:47.442Z,22.97
2022-08-22T20:08:45.305Z,22.80
2022-08-22T20:11:37.699Z,22.60
2022-08-22T20:14:30.017Z,22.68
2022-08-22T20:17:09.201Z,22.61
2022-08-22T20:22:52.917Z,22.54
2022-08-22T20:25:44.232Z,22.45
2022-08-22T20:28:48.793Z,22.52
2022-08-22T20:31:27.102Z,22.63
2022-08-22T20:34:15.897Z,22.53
2022-08-22T20:36:46.585Z,22.32
2022-08-22T20:39:24.485Z,22.18
2022-08-22T20:42:14.389Z,22.06
2022-08-22T20:44:47.384Z,21.83
2022-08-22T20:47:36.229Z,21.83
2022-08-22T20:50:12.008Z,22.06
2022-08-22T20:52:51.855Z,22.18
2022-08-22T20:55:31.933Z,22.28
2022-08-22T20:58:04.961Z,22.34
2022-08-22T21:00:42.069Z,22.37
2022-08-22T21:03:31.944Z,22.12
2022-08-22T21:06:16.721Z,21.94
2022-08-22T21:08:47.327Z,21.80
2022-08-22T21:11:40.964Z,21.78
2022-08-22T21:14:23.983Z,21.94
2022-08-22T21:16:51.509Z,21.85
2022-08-22T21:19:28.098Z,21.86
2022-08-22T21:22:15.266Z,22.01
2022-08-22T21:24:42.397Z,22.04
2022-08-22T21:27:14.396Z,21.98
2022-08-22T21:29:46.800Z,21.98
2022-08-22T21:32:13.528Z,22.12
2022-08-22T21:34:48.899Z,22.09
2022-08-22T21:37:39.783Z,22.06
2022-08-22T21:40:15.832Z,22.21
2022-08-22T21:43:07.509Z,22.21
2022-08-22T21:45:44.655Z,22.24
2022-08-22T21:48:43.625Z,22.13
2022-08-22T21:51:45.185Z,21.97
2022-08-22T21:54:30.005Z,21.93
2022-08-22T21:57:18.437Z,21.79
2022-08-22T21:59:59.750Z,21.89
2022-08-22T22:02:39.669Z,21.82
2022-08-22T22:05:17.952Z,21.85
2022-08-22T22:07:47.432Z,21.69
2022-08-22T22:10:18.605Z,21.69
2022-08-22T22:12:49.220Z,21.65
2022-08-22T22:15:22.440Z,21.58
2022-08-22T22:17:49.990Z,21.47
2022-08-22T22:20:19.532Z,21.41
2022-08-22T22:22:47.334Z,21.27
2022-08-22T22:25:38.762Z,21.21
2022-08-22T22:28:41.517Z,21.18
2022-08-22T22:31:09.368Z,21.14
2022-08-22T22:33:40.093Z,21.25
2022-08-22T22:36:27.969Z,21.31
2022-08-22T22:38:55.326Z,21.30
2022-08-22T22:41:25.420Z,21.42
2022-08-22T22:43:53.688Z,21.45
2022-08-22T22:46:22.107Z,21.47
2022-08-22T22:48:48.988Z,21.48
2022-08-22T22:51:16.107Z,21.42
2022-08-22T22:53:44.752Z,21.38
2022-08-22T22:56:17.924Z,21.36
2022-08-22T22:58:50.555Z,21.39
2022-08-22T23:01:27.214Z,21.26
2022-08-22T23:03:57.348Z,21.14
2022-08-22T23:06:27.131Z,21.09
2022-08-22T23:08:57.681Z,21.24
2022-08-22T23:11:30.525Z,21.32
2022-08-22T23:13:57.611Z,21.32
2022-08-22T23:16:28.811Z,21.19
2022-08-22T23:18:56.700Z,21.04
2022-08-22T23:21:29.699Z,20.79
2022-08-22T23:23:59.447Z,20.83
2022-08-22T23:26:28.313Z,20.90
2022-08-22T23:28:56.533Z,20.96
2022-08-22T23:31:48.157Z,20.86
2022-08-22T23:34:22.703Z,20.83
2022-08-22T23:36:52.553Z,20.81
2022-08-22T23:39:22.372Z,20.88
2022-08-22T23:41:50.940Z,20.89
2022-08-22T23:44:23.048Z,20.80
2022-08-22T23:46:51.173Z,20.74
2022-08-22T23:49:19.202Z,20.84
2022-08-22T23:51:48.422Z,20.97
2022-08-22T23:54:16.927Z,21.01
2022-08-22T23:56:48.485Z,20.93
2022-08-22T23:59:20.662Z,20.97
